createdAt,value
2018-04-30T00:00:51.621Z,10.89
2018-04-30T00:03:19.997Z,10.82
2018-04-30T00:05:48.395Z,10.78
2018-04-30T00:08:16.809Z,10.75
2018-04-30T00:10:45.211Z,10.74
2018-04-30T00:13:13.804Z,10.69
2018-04-30T00:15:42.149Z,10.70
2018-04-30T00:18:10.542Z,10.69
2018-04-30T00:20:39.890Z,10.67
2018-04-30T00:23:08.345Z,10.69
2018-04-30T00:25:36.686Z,10.66
2018-04-30T00:28:05.140Z,10.59
2018-04-30T00:30:33.631Z,10.63
2018-04-30T00:33:01.982Z,10.57
2018-04-30T00:35:30.985Z,10.58
2018-04-30T00:37:59.354Z,10.55
2018-04-30T00:40:27.708Z,10.57
2018-04-30T00:42:56.916Z,10.55
2018-04-30T00:45:25.284Z,10.53
2018-04-30T00:47:53.644Z,10.46
2018-04-30T00:50:23.300Z,10.51
2018-04-30T00:52:51.663Z,10.52
2018-04-30T00:55:20.006Z,10.53
2018-04-30T00:57:48.836Z,10.53
2018-04-30T01:00:17.208Z,10.51
2018-04-30T01:02:45.614Z,10.51
2018-04-30T01:05:14.013Z,10.53
2018-04-30T01:07:42.391Z,10.54
2018-04-30T01:10:10.814Z,10.51
2018-04-30T01:12:39.186Z,10.47
2018-04-30T01:15:07.531Z,10.51
2018-04-30T01:17:35.891Z,10.48
2018-04-30T01:20:04.528Z,10.47
2018-04-30T01:22:32.869Z,10.48
2018-04-30T01:25:01.238Z,10.46
2018-04-30T01:27:29.617Z,10.39
2018-04-30T01:29:57.982Z,10.34
2018-04-30T01:32:26.340Z,10.33
2018-04-30T01:34:54.732Z,10.29
2018-04-30T01:37:23.083Z,10.27
2018-04-30T01:39:51.441Z,10.14
2018-04-30T01:42:19.855Z,10.08
2018-04-30T01:44:48.230Z,10.02
2018-04-30T01:47:16.586Z,9.86
2018-04-30T01:49:45.841Z,9.91
2018-04-30T01:52:14.261Z,9.86
2018-04-30T01:54:42.631Z,9.87
2018-04-30T01:57:11.564Z,9.95
2018-04-30T01:59:39.930Z,9.93
2018-04-30T02:02:08.371Z,9.90
2018-04-30T02:04:36.777Z,9.77
2018-04-30T02:07:05.108Z,9.80
2018-04-30T02:09:34.477Z,9.80
2018-04-30T02:12:02.895Z,9.69
2018-04-30T02:14:31.235Z,9.67
2018-04-30T02:16:59.604Z,9.79
2018-04-30T02:19:27.948Z,9.83
2018-04-30T02:21:56.296Z,9.67
2018-04-30T02:24:24.621Z,9.65
2018-04-30T02:26:53.050Z,9.63
2018-04-30T02:29:21.366Z,9.66
2018-04-30T02:31:49.710Z,9.71
2018-04-30T02:34:18.116Z,9.73
2018-04-30T02:36:46.582Z,9.84
2018-04-30T02:39:14.980Z,9.79
2018-04-30T02:41:44.153Z,9.77
2018-04-30T02:44:12.550Z,9.83
2018-04-30T02:46:40.938Z,9.79
2018-04-30T02:49:09.345Z,9.83
2018-04-30T02:51:37.897Z,9.80
2018-04-30T02:54:06.268Z,9.83
2018-04-30T02:56:35.002Z,9.87
2018-04-30T02:59:03.410Z,9.93
2018-04-30T03:01:32.787Z,9.84
2018-04-30T03:04:02.557Z,9.95
2018-04-30T03:06:30.894Z,9.98
2018-04-30T03:08:59.230Z,9.98
2018-04-30T03:11:28.009Z,10.01
2018-04-30T03:13:56.402Z,10.07
2018-04-30T03:16:24.742Z,10.08
2018-04-30T03:18:53.118Z,10.11
2018-04-30T03:21:22.458Z,10.14
2018-04-30T03:23:50.810Z,10.20
2018-04-30T03:26:19.870Z,10.21
2018-04-30T03:28:48.251Z,10.25
2018-04-30T03:31:16.623Z,10.13
2018-04-30T03:33:45.374Z,10.22
2018-04-30T03:36:13.718Z,10.14
2018-04-30T03:38:42.137Z,10.25
2018-04-30T03:41:10.625Z,10.25
2018-04-30T03:43:39.061Z,10.28
2018-04-30T03:46:07.370Z,10.35
2018-04-30T03:48:35.866Z,10.40
2018-04-30T03:51:04.227Z,10.46
2018-04-30T03:53:32.576Z,10.50
2018-04-30T03:56:01.768Z,10.48
2018-04-30T03:58:30.167Z,10.58
2018-04-30T04:01:10.444Z,10.58
2018-04-30T04:03:50.748Z,10.57
2018-04-30T04:06:31.241Z,10.62
2018-04-30T04:09:00.404Z,10.61
2018-04-30T04:11:28.748Z,10.59
2018-04-30T04:13:57.176Z,10.65
2018-04-30T04:16:25.610Z,10.64
2018-04-30T04:18:53.967Z,10.63
2018-04-30T04:21:22.414Z,10.62
2018-04-30T04:23:51.821Z,10.64
2018-04-30T04:26:20.192Z,10.64
2018-04-30T04:28:48.698Z,10.68
2018-04-30T04:31:17.989Z,10.74
2018-04-30T04:33:46.357Z,10.72
2018-04-30T04:36:15.443Z,10.86
2018-04-30T04:38:43.881Z,10.92
2018-04-30T04:41:12.269Z,10.92
2018-04-30T04:43:40.676Z,10.85
2018-04-30T04:46:09.025Z,10.95
2018-04-30T04:48:37.380Z,11.01
2018-04-30T04:51:06.446Z,11.03
2018-04-30T04:53:34.784Z,11.08
2018-04-30T04:56:03.975Z,11.07
2018-04-30T04:58:32.326Z,11.13
2018-04-30T05:01:00.697Z,11.13
2018-04-30T05:03:29.052Z,11.19
2018-04-30T05:05:57.457Z,11.19
2018-04-30T05:08:25.906Z,11.22
2018-04-30T05:10:54.279Z,11.34
2018-04-30T05:13:23.161Z,11.32
2018-04-30T05:15:51.479Z,11.35
2018-04-30T05:18:19.938Z,11.39
2018-04-30T05:20:48.779Z,11.48
2018-04-30T05:23:17.132Z,11.54
2018-04-30T05:25:45.508Z,11.58
2018-04-30T05:28:14.741Z,11.72
2018-04-30T05:30:43.137Z,11.73
2018-04-30T05:33:11.681Z,11.77
2018-04-30T05:35:41.293Z,11.71
2018-04-30T05:38:09.775Z,11.82
2018-04-30T05:40:39.082Z,11.77
2018-04-30T05:43:08.988Z,11.79
2018-04-30T05:45:37.430Z,11.74
2018-04-30T05:48:05.856Z,11.76
2018-04-30T05:50:34.292Z,11.88
2018-04-30T05:53:02.654Z,11.87
2018-04-30T05:55:30.997Z,11.88
2018-04-30T05:57:59.823Z,11.86
2018-04-30T06:00:28.292Z,11.91
2018-04-30T06:02:56.558Z,11.86
2018-04-30T06:05:24.955Z,11.95
2018-04-30T06:07:53.355Z,12.06
2018-04-30T06:10:21.716Z,12.10
2018-04-30T06:12:50.170Z,12.00
2018-04-30T06:15:18.618Z,11.95
2018-04-30T06:17:47.003Z,12.00
2018-04-30T06:20:16.211Z,12.08
2018-04-30T06:22:44.649Z,11.97
2018-04-30T06:25:13.070Z,11.88
2018-04-30T06:27:42.202Z,11.94
2018-04-30T06:30:10.568Z,11.94
2018-04-30T06:32:38.974Z,11.95
2018-04-30T06:35:07.421Z,11.87
2018-04-30T06:37:35.755Z,11.88
2018-04-30T06:40:04.269Z,11.90
2018-04-30T06:42:33.060Z,11.88
2018-04-30T06:45:01.416Z,11.95
2018-04-30T06:47:29.780Z,12.01
2018-04-30T06:49:58.891Z,11.85
2018-04-30T06:52:27.233Z,11.84
2018-04-30T06:57:47.729Z,12.20
2018-04-30T07:00:16.161Z,12.55
2018-04-30T07:02:44.509Z,12.83
2018-04-30T07:05:13.740Z,13.06
2018-04-30T07:07:42.125Z,13.39
2018-04-30T07:10:10.636Z,13.38
2018-04-30T07:12:39.087Z,13.57
2018-04-30T07:15:07.439Z,13.67
2018-04-30T07:17:35.864Z,13.66
2018-04-30T07:20:04.940Z,13.66
2018-04-30T07:22:33.206Z,13.65
2018-04-30T07:25:01.550Z,13.67
2018-04-30T07:27:30.196Z,13.63
2018-04-30T07:29:58.673Z,13.56
2018-04-30T07:32:26.983Z,13.46
2018-04-30T07:34:55.350Z,13.42
2018-04-30T07:37:23.731Z,13.38
2018-04-30T07:39:52.088Z,13.23
2018-04-30T07:42:20.469Z,13.25
2018-04-30T07:44:48.856Z,13.22
2018-04-30T07:47:17.272Z,12.98
2018-04-30T07:49:45.851Z,13.08
2018-04-30T07:52:14.195Z,13.07
2018-04-30T07:54:42.621Z,13.14
2018-04-30T07:57:11.212Z,13.18
2018-04-30T07:59:39.569Z,13.09
2018-04-30T08:02:07.930Z,12.99
2018-04-30T08:04:36.433Z,13.04
2018-04-30T08:07:04.811Z,13.08
2018-04-30T08:09:33.168Z,13.19
2018-04-30T08:12:01.544Z,13.33
2018-04-30T08:14:29.890Z,13.47
2018-04-30T08:16:58.228Z,13.83
2018-04-30T08:19:26.951Z,13.92
2018-04-30T08:21:55.309Z,13.97
2018-04-30T08:24:23.640Z,14.02
2018-04-30T08:26:52.927Z,13.74
2018-04-30T08:29:21.250Z,13.21
2018-04-30T08:31:49.685Z,13.40
2018-04-30T08:34:18.864Z,13.74
2018-04-30T08:36:47.273Z,13.94
2018-04-30T08:39:15.627Z,14.12
2018-04-30T08:41:44.068Z,14.20
2018-04-30T08:44:13.533Z,14.29
2018-04-30T08:46:42.016Z,14.35
2018-04-30T08:49:10.410Z,14.31
2018-04-30T08:51:38.847Z,14.42
2018-04-30T08:54:07.559Z,14.52
2018-04-30T08:56:35.986Z,14.44
2018-04-30T08:59:04.519Z,14.54
2018-04-30T09:01:32.853Z,14.32
2018-04-30T09:04:01.389Z,14.52
2018-04-30T09:06:29.737Z,13.95
2018-04-30T09:08:58.095Z,14.03
2018-04-30T09:11:26.457Z,14.04
2018-04-30T09:13:54.805Z,13.96
2018-04-30T09:16:23.150Z,13.96
2018-04-30T09:18:51.538Z,14.15
2018-04-30T09:21:19.928Z,14.25
2018-04-30T09:23:49.293Z,14.28
2018-04-30T09:26:18.865Z,14.11
2018-04-30T09:28:47.228Z,14.45
2018-04-30T09:31:15.616Z,14.84
2018-04-30T09:33:44.076Z,15.60
2018-04-30T09:36:12.501Z,16.12
2018-04-30T09:38:40.890Z,16.75
2018-04-30T09:41:10.135Z,17.45
2018-04-30T09:43:38.529Z,17.49
2018-04-30T09:46:06.882Z,17.16
2018-04-30T09:48:35.329Z,16.98
2018-04-30T09:51:03.737Z,16.71
2018-04-30T09:53:32.112Z,16.49
2018-04-30T09:56:00.461Z,16.82
2018-04-30T09:58:28.789Z,16.54
2018-04-30T10:00:57.153Z,16.27
2018-04-30T10:03:26.104Z,16.15
2018-04-30T10:05:54.486Z,14.73
2018-04-30T10:08:22.863Z,13.91
2018-04-30T10:10:51.869Z,14.29
2018-04-30T10:13:20.202Z,14.97
2018-04-30T10:15:49.277Z,14.84
2018-04-30T10:18:18.218Z,14.63
2018-04-30T10:20:46.594Z,14.82
2018-04-30T10:23:14.967Z,15.09
2018-04-30T10:25:45.100Z,14.41
2018-04-30T10:28:13.499Z,13.86
2018-04-30T10:30:41.887Z,13.42
2018-04-30T10:33:10.276Z,13.65
2018-04-30T10:35:38.604Z,13.68
2018-04-30T10:38:07.015Z,13.15
2018-04-30T10:40:36.184Z,12.92
2018-04-30T10:43:04.539Z,13.03
2018-04-30T10:45:32.886Z,13.02
2018-04-30T10:48:01.475Z,13.10
2018-04-30T10:50:29.815Z,13.10
2018-04-30T10:52:58.135Z,13.18
2018-04-30T10:55:26.751Z,12.90
2018-04-30T10:57:55.094Z,12.89
2018-04-30T11:00:23.431Z,13.02
2018-04-30T11:02:51.822Z,13.19
2018-04-30T11:05:20.189Z,13.29
2018-04-30T11:07:48.554Z,13.57
2018-04-30T11:10:18.033Z,14.09
2018-04-30T11:12:46.435Z,14.28
2018-04-30T11:15:14.807Z,14.09
2018-04-30T11:17:43.455Z,14.12
2018-04-30T11:20:11.779Z,14.54
2018-04-30T11:22:40.341Z,15.03
2018-04-30T11:25:09.639Z,15.22
2018-04-30T11:27:38.027Z,15.37
2018-04-30T11:30:06.414Z,15.41
2018-04-30T11:32:34.878Z,15.20
2018-04-30T11:35:03.221Z,15.25
2018-04-30T11:37:31.553Z,14.94
2018-04-30T11:40:00.037Z,14.87
2018-04-30T11:42:28.361Z,14.50
2018-04-30T11:44:56.745Z,14.34
2018-04-30T11:47:25.485Z,14.03
2018-04-30T11:49:53.874Z,13.99
2018-04-30T11:52:22.205Z,14.18
2018-04-30T11:54:50.723Z,14.26
2018-04-30T11:57:19.195Z,14.08
2018-04-30T11:59:47.570Z,13.68
2018-04-30T12:02:16.050Z,13.77
2018-04-30T12:04:44.408Z,13.78
2018-04-30T12:07:12.874Z,13.59
2018-04-30T12:09:41.448Z,13.50
2018-04-30T12:12:09.841Z,13.53
2018-04-30T12:14:38.164Z,13.64
2018-04-30T12:17:06.636Z,13.65
2018-04-30T12:19:35.095Z,13.69
2018-04-30T12:22:03.509Z,13.71
2018-04-30T12:24:33.372Z,13.68
2018-04-30T12:27:01.747Z,13.72
2018-04-30T12:29:30.106Z,13.82
2018-04-30T12:31:58.473Z,13.92
2018-04-30T12:34:26.811Z,13.83
2018-04-30T12:36:55.132Z,14.05
2018-04-30T12:39:23.672Z,14.31
2018-04-30T12:41:52.064Z,14.47
2018-04-30T12:44:20.420Z,14.52
2018-04-30T12:46:48.933Z,14.43
2018-04-30T12:49:17.351Z,14.44
2018-04-30T12:51:45.791Z,14.21
2018-04-30T12:54:14.751Z,14.34
2018-04-30T12:56:43.162Z,14.42
2018-04-30T12:59:11.563Z,14.56
2018-04-30T13:01:40.742Z,14.70
2018-04-30T13:04:09.151Z,14.79
2018-04-30T13:06:37.527Z,14.86
2018-04-30T13:09:05.898Z,14.85
2018-04-30T13:11:34.288Z,14.82
2018-04-30T13:14:02.649Z,14.69
2018-04-30T13:16:31.006Z,14.62
2018-04-30T13:18:59.389Z,14.53
2018-04-30T13:21:27.705Z,14.51
2018-04-30T13:23:56.094Z,14.51
2018-04-30T13:26:24.525Z,14.54
2018-04-30T13:28:52.953Z,14.50
2018-04-30T13:31:22.149Z,14.54
2018-04-30T13:33:50.559Z,14.53
2018-04-30T13:36:19.043Z,14.58
2018-04-30T13:38:47.955Z,14.56
2018-04-30T13:41:16.317Z,14.53
2018-04-30T13:43:44.755Z,14.60
2018-04-30T13:46:13.242Z,14.65
2018-04-30T13:48:41.626Z,14.70
2018-04-30T13:51:10.033Z,14.77
2018-04-30T13:53:39.363Z,14.82
2018-04-30T13:56:07.741Z,14.83
2018-04-30T13:58:36.121Z,14.92
2018-04-30T14:01:04.510Z,14.95
2018-04-30T14:03:32.886Z,14.96
2018-04-30T14:06:01.258Z,15.09
2018-04-30T14:08:29.637Z,15.11
2018-04-30T14:10:58.009Z,15.24
2018-04-30T14:13:26.391Z,15.30
2018-04-30T14:15:55.034Z,15.25
2018-04-30T14:18:23.386Z,15.19
2018-04-30T14:20:51.714Z,15.14
2018-04-30T14:23:21.693Z,14.99
2018-04-30T14:25:50.155Z,14.86
2018-04-30T14:28:18.513Z,14.74
2018-04-30T14:30:46.971Z,14.71
2018-04-30T14:33:15.415Z,14.65
2018-04-30T14:35:43.854Z,14.72
2018-04-30T14:38:12.274Z,14.73
2018-04-30T14:40:40.655Z,14.58
2018-04-30T14:43:09.136Z,14.36
2018-04-30T14:45:38.126Z,14.33
2018-04-30T14:48:06.511Z,14.29
2018-04-30T14:50:34.845Z,14.22
2018-04-30T14:53:03.249Z,14.16
2018-04-30T14:55:31.619Z,14.09
2018-04-30T14:57:59.938Z,13.98
2018-04-30T15:00:29.209Z,14.05
2018-04-30T15:02:57.953Z,14.07
2018-04-30T15:05:26.405Z,13.98
2018-04-30T15:07:55.555Z,13.90
2018-04-30T15:10:24.002Z,13.92
2018-04-30T15:12:52.420Z,13.95
2018-04-30T15:15:20.909Z,14.07
2018-04-30T15:17:49.332Z,14.20
2018-04-30T15:20:17.705Z,14.27
2018-04-30T15:22:47.152Z,14.30
2018-04-30T15:25:15.530Z,14.21
2018-04-30T15:27:43.978Z,14.29
2018-04-30T15:30:14.266Z,14.40
2018-04-30T15:32:44.318Z,14.43
2018-04-30T15:35:13.919Z,14.52
2018-04-30T15:37:43.396Z,14.54
2018-04-30T15:40:12.074Z,14.59
2018-04-30T15:42:42.100Z,14.64
2018-04-30T15:45:12.930Z,14.83
2018-04-30T15:47:42.952Z,14.93
2018-04-30T15:50:15.338Z,14.92
2018-04-30T15:52:44.303Z,14.97
2018-04-30T15:55:12.715Z,14.94
2018-04-30T15:57:41.104Z,15.16
2018-04-30T16:00:09.591Z,15.22
2018-04-30T16:02:37.970Z,15.35
2018-04-30T16:05:08.273Z,15.41
2018-04-30T16:07:36.621Z,15.41
2018-04-30T16:10:04.938Z,15.46
2018-04-30T16:12:33.511Z,15.45
2018-04-30T16:15:01.963Z,15.40
2018-04-30T16:17:30.329Z,15.33
2018-04-30T16:19:58.720Z,15.36
2018-04-30T16:22:27.076Z,15.41
2018-04-30T16:24:55.499Z,15.46
2018-04-30T16:27:24.495Z,15.43
2018-04-30T16:29:52.809Z,15.48
2018-04-30T16:32:21.164Z,15.50
2018-04-30T16:34:49.637Z,15.50
2018-04-30T16:37:18.327Z,15.51
2018-04-30T16:39:46.780Z,15.55
2018-04-30T16:42:16.754Z,15.52
2018-04-30T16:44:46.234Z,15.55
2018-04-30T16:47:14.696Z,15.61
2018-04-30T16:49:43.097Z,15.64
2018-04-30T16:52:11.632Z,15.60
2018-04-30T16:54:40.048Z,15.63
2018-04-30T16:57:08.616Z,15.63
2018-04-30T16:59:36.976Z,15.61
2018-04-30T17:02:05.362Z,15.65
2018-04-30T17:04:34.833Z,15.66
2018-04-30T17:07:03.266Z,15.68
2018-04-30T17:09:31.589Z,15.65
2018-04-30T17:12:00.038Z,15.65
2018-04-30T17:14:28.382Z,15.76
2018-04-30T17:16:56.749Z,15.78
2018-04-30T17:19:25.651Z,15.80
2018-04-30T17:21:54.036Z,15.75
2018-04-30T17:24:22.566Z,15.80
2018-04-30T17:26:50.956Z,15.81
2018-04-30T17:29:19.671Z,15.77
2018-04-30T17:31:48.279Z,15.76
2018-04-30T17:34:17.144Z,15.69
2018-04-30T17:36:45.802Z,15.68
2018-04-30T17:39:14.296Z,15.61
2018-04-30T17:41:42.796Z,15.58
2018-04-30T17:44:12.308Z,15.53
2018-04-30T17:46:41.357Z,15.43
2018-04-30T17:49:10.760Z,15.48
2018-04-30T17:51:40.035Z,15.50
2018-04-30T17:54:09.025Z,15.49
2018-04-30T17:56:37.468Z,15.49
2018-04-30T17:59:05.930Z,15.48
2018-04-30T18:01:35.637Z,15.46
2018-04-30T18:04:04.540Z,15.42
2018-04-30T18:06:32.886Z,15.46
2018-04-30T18:09:01.213Z,15.51
2018-04-30T18:11:29.802Z,15.56
2018-04-30T18:13:58.247Z,15.52
2018-04-30T18:16:26.676Z,15.47
2018-04-30T18:18:55.041Z,15.39
2018-04-30T18:21:23.515Z,15.29
2018-04-30T18:23:52.019Z,15.28
2018-04-30T18:26:20.633Z,15.21
2018-04-30T18:28:49.064Z,15.15
2018-04-30T18:31:17.610Z,15.16
2018-04-30T18:33:49.060Z,15.08
2018-04-30T18:36:17.749Z,15.05
2018-04-30T18:38:46.453Z,15.04
2018-04-30T18:41:15.439Z,14.98
2018-04-30T18:43:44.257Z,14.99
2018-04-30T18:46:13.491Z,15.02
2018-04-30T18:48:43.020Z,15.02
2018-04-30T18:51:11.541Z,15.05
2018-04-30T18:53:40.135Z,15.10
2018-04-30T18:56:09.874Z,15.09
2018-04-30T18:58:38.532Z,15.08
2018-04-30T19:01:07.116Z,15.09
2018-04-30T19:03:36.002Z,14.93
2018-04-30T19:06:04.410Z,15.00
2018-04-30T19:08:32.749Z,14.97
2018-04-30T19:11:03.533Z,14.98
2018-04-30T19:13:32.208Z,14.95
2018-04-30T19:16:00.680Z,14.95
2018-04-30T19:18:29.677Z,14.92
2018-04-30T19:20:58.009Z,14.90
2018-04-30T19:23:26.432Z,14.86
2018-04-30T19:25:54.868Z,14.90
2018-04-30T19:28:26.677Z,14.90
2018-04-30T19:30:55.477Z,14.84
2018-04-30T19:33:23.829Z,14.84
2018-04-30T19:35:52.415Z,14.85
2018-04-30T19:38:22.837Z,14.80
2018-04-30T19:40:53.943Z,14.81
2018-04-30T19:43:22.426Z,14.76
2018-04-30T19:45:50.990Z,14.71
2018-04-30T19:48:19.545Z,14.64
2018-04-30T19:50:48.649Z,14.60
2018-04-30T19:53:17.729Z,14.53
2018-04-30T19:55:46.208Z,14.48
2018-04-30T19:58:14.720Z,14.43
2018-04-30T20:00:44.092Z,14.37
2018-04-30T20:03:12.573Z,14.38
2018-04-30T20:05:41.728Z,14.34
2018-04-30T20:08:10.209Z,14.33
2018-04-30T20:10:38.683Z,14.38
2018-04-30T20:13:07.062Z,14.42
2018-04-30T20:15:35.412Z,14.44
2018-04-30T20:18:03.764Z,14.43
2018-04-30T20:20:32.210Z,14.43
2018-04-30T20:23:00.640Z,14.45
2018-04-30T20:25:29.067Z,14.42
2018-04-30T20:27:57.516Z,14.37
2018-04-30T20:30:25.870Z,14.36
2018-04-30T20:32:54.220Z,14.36
2018-04-30T20:35:22.617Z,14.29
2018-04-30T20:37:51.475Z,14.22
2018-04-30T20:40:19.812Z,14.15
2018-04-30T20:42:48.287Z,14.13
2018-04-30T20:45:17.059Z,14.05
2018-04-30T20:47:45.478Z,14.03
2018-04-30T20:50:14.141Z,13.96
2018-04-30T20:52:42.663Z,13.90
2018-04-30T20:55:11.145Z,13.89
2018-04-30T20:57:39.693Z,13.84
2018-04-30T21:00:09.674Z,13.81
2018-04-30T21:02:37.997Z,13.72
2018-04-30T21:05:06.432Z,13.71
2018-04-30T21:07:35.609Z,13.61
2018-04-30T21:10:03.967Z,13.60
2018-04-30T21:12:32.288Z,13.55
2018-04-30T21:15:00.686Z,13.50
2018-04-30T21:17:29.170Z,13.42
2018-04-30T21:19:57.401Z,13.35
2018-04-30T21:22:26.592Z,13.28
2018-04-30T21:24:54.957Z,13.30
2018-04-30T21:27:23.356Z,13.28
2018-04-30T21:29:51.855Z,13.26
2018-04-30T21:32:20.261Z,13.26
2018-04-30T21:34:48.623Z,13.27
2018-04-30T21:37:17.282Z,13.26
2018-04-30T21:39:45.824Z,13.26
2018-04-30T21:42:14.142Z,13.21
2018-04-30T21:44:43.430Z,13.20
2018-04-30T21:47:11.886Z,13.21
2018-04-30T21:49:40.560Z,13.13
2018-04-30T21:52:10.996Z,13.14
2018-04-30T21:54:39.659Z,13.10
2018-04-30T21:57:08.193Z,13.08
2018-04-30T21:59:36.633Z,13.05
2018-04-30T22:02:04.949Z,13.02
2018-04-30T22:04:36.586Z,12.99
2018-04-30T22:07:05.019Z,12.96
2018-04-30T22:09:33.427Z,12.98
2018-04-30T22:12:01.935Z,12.98
2018-04-30T22:14:30.259Z,12.97
2018-04-30T22:16:58.673Z,12.95
2018-04-30T22:19:26.999Z,12.94
2018-04-30T22:21:55.354Z,12.88
2018-04-30T22:24:23.697Z,12.84
2018-04-30T22:26:52.039Z,12.85
2018-04-30T22:29:20.465Z,12.79
2018-04-30T22:31:50.109Z,12.79
2018-04-30T22:34:18.542Z,12.77
2018-04-30T22:36:47.049Z,12.68
2018-04-30T22:39:15.347Z,12.67
2018-04-30T22:41:43.709Z,12.58
2018-04-30T22:44:14.563Z,12.49
2018-04-30T22:46:42.932Z,12.42
2018-04-30T22:49:11.579Z,12.34
2018-04-30T22:51:40.151Z,12.28
2018-04-30T22:54:08.549Z,12.20
2018-04-30T22:56:36.897Z,12.15
2018-04-30T22:59:05.237Z,12.09
2018-04-30T23:01:33.749Z,12.07
2018-04-30T23:04:02.557Z,12.02
2018-04-30T23:06:31.673Z,11.99
2018-04-30T23:08:59.995Z,11.99
2018-04-30T23:11:28.380Z,11.96
2018-04-30T23:13:56.737Z,11.92
2018-04-30T23:16:25.143Z,11.90
2018-04-30T23:18:53.446Z,11.91
2018-04-30T23:21:22.616Z,11.94
2018-04-30T23:23:50.996Z,11.90
2018-04-30T23:26:19.338Z,11.89
2018-04-30T23:28:47.851Z,11.87
2018-04-30T23:31:16.258Z,11.84
2018-04-30T23:33:44.645Z,11.83
2018-04-30T23:36:13.275Z,11.85
2018-04-30T23:38:41.977Z,11.91
2018-04-30T23:41:10.334Z,11.92
2018-04-30T23:43:39.140Z,11.94
2018-04-30T23:46:07.496Z,11.97
2018-04-30T23:48:35.828Z,12.02
2018-04-30T23:51:05.237Z,12.04
2018-04-30T23:53:33.582Z,12.00
2018-04-30T23:56:01.936Z,12.02
2018-04-30T23:58:30.332Z,12.05
